sensor_id;sensor_type;location;lat;lon;timestamp;P1;durP1;ratioP1;P2;durP2;ratioP2
68942;SDS011;60852;52.190;4.422;2022-12-16T00:00:15;3.43;;;3.22;;
68942;SDS011;60852;52.190;4.422;2022-12-16T00:02:41;3.10;;;2.96;;
68942;SDS011;60852;52.190;4.422;2022-12-16T00:05:06;3.51;;;3.40;;
68942;SDS011;60852;52.190;4.422;2022-12-16T00:07:32;3.14;;;3.06;;
68942;SDS011;60852;52.190;4.422;2022-12-16T00:09:58;3.15;;;3.14;;
68942;SDS011;60852;52.190;4.422;2022-12-16T00:12:23;3.17;;;3.17;;
68942;SDS011;60852;52.190;4.422;2022-12-16T00:14:49;3.38;;;3.38;;
68942;SDS011;60852;52.190;4.422;2022-12-16T00:17:15;3.37;;;3.37;;
68942;SDS011;60852;52.190;4.422;2022-12-16T00:19:41;3.37;;;3.37;;
68942;SDS011;60852;52.190;4.422;2022-12-16T00:22:06;3.50;;;3.50;;
68942;SDS011;60852;52.190;4.422;2022-12-16T00:24:31;3.80;;;3.80;;
68942;SDS011;60852;52.190;4.422;2022-12-16T00:26:57;3.62;;;3.62;;
68942;SDS011;60852;52.190;4.422;2022-12-16T00:29:22;3.93;;;3.93;;
68942;SDS011;60852;52.190;4.422;2022-12-16T00:31:48;4.05;;;4.05;;
68942;SDS011;60852;52.190;4.422;2022-12-16T00:34:14;4.31;;;4.30;;
68942;SDS011;60852;52.190;4.422;2022-12-16T00:36:40;4.59;;;4.52;;
68942;SDS011;60852;52.190;4.422;2022-12-16T00:39:06;4.75;;;4.65;;
68942;SDS011;60852;52.190;4.422;2022-12-16T00:41:31;6.16;;;6.06;;
68942;SDS011;60852;52.190;4.422;2022-12-16T00:43:57;4.68;;;4.52;;
68942;SDS011;60852;52.190;4.422;2022-12-16T00:46:22;5.39;;;5.04;;
68942;SDS011;60852;52.190;4.422;2022-12-16T00:48:48;6.08;;;5.32;;
68942;SDS011;60852;52.190;4.422;2022-12-16T00:51:13;6.18;;;5.19;;
68942;SDS011;60852;52.190;4.422;2022-12-16T00:53:38;6.37;;;5.44;;
68942;SDS011;60852;52.190;4.422;2022-12-16T00:56:05;6.20;;;5.20;;
68942;SDS011;60852;52.190;4.422;2022-12-16T00:58:33;5.93;;;4.90;;
68942;SDS011;60852;52.190;4.422;2022-12-16T01:00:58;6.39;;;5.18;;
68942;SDS011;60852;52.190;4.422;2022-12-16T01:03:24;7.23;;;5.68;;
68942;SDS011;60852;52.190;4.422;2022-12-16T01:05:50;6.81;;;5.35;;
68942;SDS011;60852;52.190;4.422;2022-12-16T01:08:15;6.35;;;4.87;;
68942;SDS011;60852;52.190;4.422;2022-12-16T01:10:41;7.06;;;5.37;;
68942;SDS011;60852;52.190;4.422;2022-12-16T01:13:06;6.31;;;4.87;;
68942;SDS011;60852;52.190;4.422;2022-12-16T01:15:32;6.95;;;5.25;;
68942;SDS011;60852;52.190;4.422;2022-12-16T01:17:57;6.55;;;5.01;;
68942;SDS011;60852;52.190;4.422;2022-12-16T01:20:23;5.63;;;4.43;;
68942;SDS011;60852;52.190;4.422;2022-12-16T01:22:48;5.45;;;4.34;;
68942;SDS011;60852;52.190;4.422;2022-12-16T01:25:14;4.98;;;3.98;;
68942;SDS011;60852;52.190;4.422;2022-12-16T01:27:41;4.95;;;3.93;;
68942;SDS011;60852;52.190;4.422;2022-12-16T01:30:07;4.53;;;3.64;;
68942;SDS011;60852;52.190;4.422;2022-12-16T01:32:34;4.25;;;3.52;;
68942;SDS011;60852;52.190;4.422;2022-12-16T01:35:00;4.36;;;3.62;;
68942;SDS011;60852;52.190;4.422;2022-12-16T01:37:26;3.68;;;3.11;;
68942;SDS011;60852;52.190;4.422;2022-12-16T01:39:51;3.58;;;3.09;;
68942;SDS011;60852;52.190;4.422;2022-12-16T01:42:18;3.42;;;3.04;;
68942;SDS011;60852;52.190;4.422;2022-12-16T01:44:46;3.31;;;2.95;;
68942;SDS011;60852;52.190;4.422;2022-12-16T01:47:15;3.36;;;2.98;;
68942;SDS011;60852;52.190;4.422;2022-12-16T01:49:58;3.37;;;3.05;;
68942;SDS011;60852;52.190;4.422;2022-12-16T01:52:32;3.03;;;2.75;;
68942;SDS011;60852;52.190;4.422;2022-12-16T01:57:37;3.13;;;2.90;;
68942;SDS011;60852;52.190;4.422;2022-12-16T02:00:09;2.97;;;2.80;;
68942;SDS011;60852;52.190;4.422;2022-12-16T02:02:35;3.08;;;2.82;;
68942;SDS011;60852;52.190;4.422;2022-12-16T02:05:01;3.19;;;2.95;;
68942;SDS011;60852;52.190;4.422;2022-12-16T02:07:55;3.36;;;3.12;;
68942;SDS011;60852;52.190;4.422;2022-12-16T02:13:12;3.09;;;2.84;;
68942;SDS011;60852;52.190;4.422;2022-12-16T02:16:07;3.49;;;3.16;;
68942;SDS011;60852;52.190;4.422;2022-12-16T02:27:38;3.22;;;2.93;;
68942;SDS011;60852;52.190;4.422;2022-12-16T02:30:46;2.75;;;2.52;;
68942;SDS011;60852;52.190;4.422;2022-12-16T02:35:55;2.74;;;2.54;;
68942;SDS011;60852;52.190;4.422;2022-12-16T02:38:39;2.43;;;2.21;;
68942;SDS011;60852;52.190;4.422;2022-12-16T02:41:16;3.06;;;2.71;;
68942;SDS011;60852;52.190;4.422;2022-12-16T02:44:03;3.20;;;2.81;;
68942;SDS011;60852;52.190;4.422;2022-12-16T02:46:34;2.86;;;2.45;;
68942;SDS011;60852;52.190;4.422;2022-12-16T02:49:07;2.68;;;2.31;;
68942;SDS011;60852;52.190;4.422;2022-12-16T02:51:53;2.82;;;2.41;;
68942;SDS011;60852;52.190;4.422;2022-12-16T02:54:22;2.75;;;2.37;;
68942;SDS011;60852;52.190;4.422;2022-12-16T02:56:51;2.76;;;2.37;;
68942;SDS011;60852;52.190;4.422;2022-12-16T02:59:38;2.66;;;2.29;;
68942;SDS011;60852;52.190;4.422;2022-12-16T03:02:23;2.88;;;2.45;;
68942;SDS011;60852;52.190;4.422;2022-12-16T03:07:37;2.83;;;2.37;;
68942;SDS011;60852;52.190;4.422;2022-12-16T03:10:07;2.57;;;2.14;;
68942;SDS011;60852;52.190;4.422;2022-12-16T03:12:39;2.78;;;2.30;;
68942;SDS011;60852;52.190;4.422;2022-12-16T03:15:08;2.39;;;2.05;;
68942;SDS011;60852;52.190;4.422;2022-12-16T03:17:37;2.99;;;2.54;;
68942;SDS011;60852;52.190;4.422;2022-12-16T03:22:35;2.59;;;2.14;;
68942;SDS011;60852;52.190;4.422;2022-12-16T03:25:06;2.98;;;2.47;;
68942;SDS011;60852;52.190;4.422;2022-12-16T03:27:56;2.88;;;2.44;;
68942;SDS011;60852;52.190;4.422;2022-12-16T03:30:32;3.01;;;2.61;;
68942;SDS011;60852;52.190;4.422;2022-12-16T03:33:04;2.91;;;2.52;;
68942;SDS011;60852;52.190;4.422;2022-12-16T03:35:48;2.66;;;2.31;;
68942;SDS011;60852;52.190;4.422;2022-12-16T03:38:18;2.63;;;2.25;;
68942;SDS011;60852;52.190;4.422;2022-12-16T03:40:46;2.83;;;2.44;;
68942;SDS011;60852;52.190;4.422;2022-12-16T03:43:13;2.74;;;2.35;;
68942;SDS011;60852;52.190;4.422;2022-12-16T03:45:40;2.77;;;2.32;;
68942;SDS011;60852;52.190;4.422;2022-12-16T03:48:08;2.95;;;2.44;;
68942;SDS011;60852;52.190;4.422;2022-12-16T03:50:36;2.83;;;2.31;;
68942;SDS011;60852;52.190;4.422;2022-12-16T03:53:02;3.17;;;2.53;;
68942;SDS011;60852;52.190;4.422;2022-12-16T03:55:29;3.19;;;2.54;;
68942;SDS011;60852;52.190;4.422;2022-12-16T03:57:56;2.96;;;2.45;;
68942;SDS011;60852;52.190;4.422;2022-12-16T04:00:21;2.84;;;2.35;;
68942;SDS011;60852;52.190;4.422;2022-12-16T04:02:48;2.85;;;2.35;;
68942;SDS011;60852;52.190;4.422;2022-12-16T04:05:13;2.72;;;2.32;;
68942;SDS011;60852;52.190;4.422;2022-12-16T04:07:39;3.07;;;2.64;;
68942;SDS011;60852;52.190;4.422;2022-12-16T04:10:05;2.93;;;2.51;;
68942;SDS011;60852;52.190;4.422;2022-12-16T04:12:32;3.05;;;2.64;;
68942;SDS011;60852;52.190;4.422;2022-12-16T04:15:16;2.99;;;2.64;;
68942;SDS011;60852;52.190;4.422;2022-12-16T04:18:00;2.84;;;2.58;;
68942;SDS011;60852;52.190;4.422;2022-12-16T04:20:51;3.04;;;2.74;;
68942;SDS011;60852;52.190;4.422;2022-12-16T04:23:42;3.24;;;2.91;;
68942;SDS011;60852;52.190;4.422;2022-12-16T04:26:32;3.27;;;2.88;;
68942;SDS011;60852;52.190;4.422;2022-12-16T04:29:17;3.45;;;3.09;;
68942;SDS011;60852;52.190;4.422;2022-12-16T04:31:43;6.14;;;5.56;;
68942;SDS011;60852;52.190;4.422;2022-12-16T04:34:09;8.56;;;7.78;;
68942;SDS011;60852;52.190;4.422;2022-12-16T04:36:51;10.37;;;9.33;;
68942;SDS011;60852;52.190;4.422;2022-12-16T04:39:38;8.79;;;8.06;;
68942;SDS011;60852;52.190;4.422;2022-12-16T04:42:22;7.92;;;7.33;;
68942;SDS011;60852;52.190;4.422;2022-12-16T04:45:06;7.89;;;7.26;;
68942;SDS011;60852;52.190;4.422;2022-12-16T04:47:51;7.73;;;7.08;;
68942;SDS011;60852;52.190;4.422;2022-12-16T04:50:36;7.20;;;6.73;;
68942;SDS011;60852;52.190;4.422;2022-12-16T04:53:21;6.95;;;6.62;;
68942;SDS011;60852;52.190;4.422;2022-12-16T04:56:06;6.70;;;6.35;;
68942;SDS011;60852;52.190;4.422;2022-12-16T04:58:50;7.10;;;6.73;;
68942;SDS011;60852;52.190;4.422;2022-12-16T05:01:34;7.09;;;6.58;;
68942;SDS011;60852;52.190;4.422;2022-12-16T05:04:18;7.17;;;6.71;;
68942;SDS011;60852;52.190;4.422;2022-12-16T05:07:02;6.44;;;6.11;;
68942;SDS011;60852;52.190;4.422;2022-12-16T05:09:46;6.31;;;6.02;;
68942;SDS011;60852;52.190;4.422;2022-12-16T05:12:30;6.65;;;6.29;;
68942;SDS011;60852;52.190;4.422;2022-12-16T05:15:14;6.49;;;6.19;;
68942;SDS011;60852;52.190;4.422;2022-12-16T05:17:58;6.63;;;6.54;;
68942;SDS011;60852;52.190;4.422;2022-12-16T05:20:42;5.93;;;5.83;;
68942;SDS011;60852;52.190;4.422;2022-12-16T05:23:26;5.87;;;5.69;;
68942;SDS011;60852;52.190;4.422;2022-12-16T05:26:10;5.07;;;4.91;;
68942;SDS011;60852;52.190;4.422;2022-12-16T05:28:54;5.31;;;5.18;;
68942;SDS011;60852;52.190;4.422;2022-12-16T05:31:38;4.79;;;4.66;;
68942;SDS011;60852;52.190;4.422;2022-12-16T05:34:22;4.58;;;4.46;;
68942;SDS011;60852;52.190;4.422;2022-12-16T05:37:06;4.61;;;4.49;;
68942;SDS011;60852;52.190;4.422;2022-12-16T05:39:50;4.38;;;4.28;;
68942;SDS011;60852;52.190;4.422;2022-12-16T05:42:34;4.38;;;4.26;;
68942;SDS011;60852;52.190;4.422;2022-12-16T05:45:29;4.31;;;4.20;;
68942;SDS011;60852;52.190;4.422;2022-12-16T05:48:12;4.16;;;4.08;;
68942;SDS011;60852;52.190;4.422;2022-12-16T05:50:56;4.48;;;4.39;;
68942;SDS011;60852;52.190;4.422;2022-12-16T05:53:40;4.39;;;4.31;;
68942;SDS011;60852;52.190;4.422;2022-12-16T05:56:24;5.46;;;5.38;;
68942;SDS011;60852;52.190;4.422;2022-12-16T05:59:08;4.55;;;4.51;;
68942;SDS011;60852;52.190;4.422;2022-12-16T06:01:52;5.73;;;5.63;;
68942;SDS011;60852;52.190;4.422;2022-12-16T06:04:36;5.97;;;5.95;;
68942;SDS011;60852;52.190;4.422;2022-12-16T06:07:20;6.12;;;6.09;;
68942;SDS011;60852;52.190;4.422;2022-12-16T06:10:04;6.78;;;6.66;;
68942;SDS011;60852;52.190;4.422;2022-12-16T06:12:48;6.94;;;6.78;;
68942;SDS011;60852;52.190;4.422;2022-12-16T06:15:32;6.90;;;6.83;;
68942;SDS011;60852;52.190;4.422;2022-12-16T06:18:16;6.88;;;6.86;;
68942;SDS011;60852;52.190;4.422;2022-12-16T06:21:00;7.78;;;7.72;;
68942;SDS011;60852;52.190;4.422;2022-12-16T06:23:44;7.82;;;7.78;;
68942;SDS011;60852;52.190;4.422;2022-12-16T06:26:28;7.52;;;7.48;;
68942;SDS011;60852;52.190;4.422;2022-12-16T06:29:12;6.25;;;6.22;;
68942;SDS011;60852;52.190;4.422;2022-12-16T06:31:56;6.72;;;6.64;;
68942;SDS011;60852;52.190;4.422;2022-12-16T06:34:41;6.28;;;6.21;;
68942;SDS011;60852;52.190;4.422;2022-12-16T06:37:24;5.46;;;5.43;;
68942;SDS011;60852;52.190;4.422;2022-12-16T06:40:16;5.54;;;5.45;;
68942;SDS011;60852;52.190;4.422;2022-12-16T06:43:00;6.56;;;6.51;;
68942;SDS011;60852;52.190;4.422;2022-12-16T06:45:44;9.87;;;9.71;;
68942;SDS011;60852;52.190;4.422;2022-12-16T06:48:28;29.30;;;26.66;;
68942;SDS011;60852;52.190;4.422;2022-12-16T06:51:12;20.70;;;19.01;;
68942;SDS011;60852;52.190;4.422;2022-12-16T06:53:56;20.51;;;19.15;;
68942;SDS011;60852;52.190;4.422;2022-12-16T06:56:40;31.42;;;28.73;;
68942;SDS011;60852;52.190;4.422;2022-12-16T06:59:25;22.82;;;21.05;;
68942;SDS011;60852;52.190;4.422;2022-12-16T07:02:09;18.95;;;17.78;;
68942;SDS011;60852;52.190;4.422;2022-12-16T07:04:54;10.80;;;10.45;;
68942;SDS011;60852;52.190;4.422;2022-12-16T07:07:38;10.90;;;10.75;;
68942;SDS011;60852;52.190;4.422;2022-12-16T07:10:22;10.02;;;9.88;;
68942;SDS011;60852;52.190;4.422;2022-12-16T07:13:06;9.31;;;9.09;;
68942;SDS011;60852;52.190;4.422;2022-12-16T07:15:50;9.11;;;9.01;;
68942;SDS011;60852;52.190;4.422;2022-12-16T07:18:33;8.31;;;8.25;;
68942;SDS011;60852;52.190;4.422;2022-12-16T07:21:18;7.32;;;7.31;;
68942;SDS011;60852;52.190;4.422;2022-12-16T07:24:02;7.50;;;7.47;;
68942;SDS011;60852;52.190;4.422;2022-12-16T07:26:47;7.73;;;7.67;;
68942;SDS011;60852;52.190;4.422;2022-12-16T07:29:31;8.66;;;8.62;;
68942;SDS011;60852;52.190;4.422;2022-12-16T07:32:15;8.48;;;8.46;;
68942;SDS011;60852;52.190;4.422;2022-12-16T07:34:59;8.17;;;8.12;;
68942;SDS011;60852;52.190;4.422;2022-12-16T07:37:43;8.73;;;8.67;;
68942;SDS011;60852;52.190;4.422;2022-12-16T07:40:27;9.23;;;9.18;;
68942;SDS011;60852;52.190;4.422;2022-12-16T07:43:11;9.19;;;9.14;;
68942;SDS011;60852;52.190;4.422;2022-12-16T07:45:55;8.66;;;8.60;;
68942;SDS011;60852;52.190;4.422;2022-12-16T07:48:39;8.19;;;8.14;;
68942;SDS011;60852;52.190;4.422;2022-12-16T07:51:23;8.50;;;8.29;;
68942;SDS011;60852;52.190;4.422;2022-12-16T07:54:07;8.44;;;8.39;;
68942;SDS011;60852;52.190;4.422;2022-12-16T07:56:51;7.97;;;7.92;;
68942;SDS011;60852;52.190;4.422;2022-12-16T07:59:35;7.85;;;7.79;;
68942;SDS011;60852;52.190;4.422;2022-12-16T08:02:19;8.81;;;8.75;;
68942;SDS011;60852;52.190;4.422;2022-12-16T08:05:03;9.66;;;9.60;;
68942;SDS011;60852;52.190;4.422;2022-12-16T08:07:47;11.25;;;11.23;;
68942;SDS011;60852;52.190;4.422;2022-12-16T08:10:32;10.35;;;10.30;;
68942;SDS011;60852;52.190;4.422;2022-12-16T08:13:16;9.22;;;9.18;;
68942;SDS011;60852;52.190;4.422;2022-12-16T08:16:00;8.57;;;8.54;;
68942;SDS011;60852;52.190;4.422;2022-12-16T08:18:44;8.06;;;8.03;;
68942;SDS011;60852;52.190;4.422;2022-12-16T08:21:28;7.83;;;7.75;;
68942;SDS011;60852;52.190;4.422;2022-12-16T08:24:12;9.17;;;9.15;;
68942;SDS011;60852;52.190;4.422;2022-12-16T08:26:56;9.78;;;9.78;;
68942;SDS011;60852;52.190;4.422;2022-12-16T08:29:40;10.17;;;10.09;;
68942;SDS011;60852;52.190;4.422;2022-12-16T08:32:24;10.61;;;10.51;;
68942;SDS011;60852;52.190;4.422;2022-12-16T08:35:08;12.24;;;12.11;;
68942;SDS011;60852;52.190;4.422;2022-12-16T08:37:55;11.91;;;11.89;;
68942;SDS011;60852;52.190;4.422;2022-12-16T08:40:40;11.96;;;11.85;;
68942;SDS011;60852;52.190;4.422;2022-12-16T08:43:25;11.63;;;11.56;;
68942;SDS011;60852;52.190;4.422;2022-12-16T08:46:09;11.49;;;11.39;;
68942;SDS011;60852;52.190;4.422;2022-12-16T08:49:13;11.59;;;11.51;;
68942;SDS011;60852;52.190;4.422;2022-12-16T08:51:57;12.62;;;12.49;;
68942;SDS011;60852;52.190;4.422;2022-12-16T08:54:41;13.63;;;13.54;;
68942;SDS011;60852;52.190;4.422;2022-12-16T08:57:25;14.42;;;14.23;;
68942;SDS011;60852;52.190;4.422;2022-12-16T09:00:09;12.25;;;12.17;;
68942;SDS011;60852;52.190;4.422;2022-12-16T09:02:54;11.06;;;10.92;;
68942;SDS011;60852;52.190;4.422;2022-12-16T09:05:42;10.82;;;10.74;;
68942;SDS011;60852;52.190;4.422;2022-12-16T09:08:27;9.19;;;9.17;;
68942;SDS011;60852;52.190;4.422;2022-12-16T09:11:12;7.86;;;7.80;;
68942;SDS011;60852;52.190;4.422;2022-12-16T09:13:56;7.71;;;7.65;;
68942;SDS011;60852;52.190;4.422;2022-12-16T09:16:40;7.60;;;7.53;;
68942;SDS011;60852;52.190;4.422;2022-12-16T09:19:24;7.48;;;7.41;;
68942;SDS011;60852;52.190;4.422;2022-12-16T09:22:08;6.50;;;6.46;;
68942;SDS011;60852;52.190;4.422;2022-12-16T09:24:52;5.91;;;5.89;;
68942;SDS011;60852;52.190;4.422;2022-12-16T09:27:36;5.73;;;5.70;;
68942;SDS011;60852;52.190;4.422;2022-12-16T09:30:20;5.21;;;5.16;;
68942;SDS011;60852;52.190;4.422;2022-12-16T09:33:04;5.25;;;5.24;;
68942;SDS011;60852;52.190;4.422;2022-12-16T09:35:49;4.91;;;4.91;;
68942;SDS011;60852;52.190;4.422;2022-12-16T09:38:32;4.76;;;4.76;;
68942;SDS011;60852;52.190;4.422;2022-12-16T09:47:06;4.83;;;4.75;;
68942;SDS011;60852;52.190;4.422;2022-12-16T09:50:13;4.05;;;4.03;;
68942;SDS011;60852;52.190;4.422;2022-12-16T09:53:03;4.98;;;4.95;;
68942;SDS011;60852;52.190;4.422;2022-12-16T09:55:56;6.64;;;6.49;;
68942;SDS011;60852;52.190;4.422;2022-12-16T09:58:46;5.32;;;5.25;;
68942;SDS011;60852;52.190;4.422;2022-12-16T10:01:39;4.17;;;4.12;;
68942;SDS011;60852;52.190;4.422;2022-12-16T10:04:23;3.70;;;3.64;;
68942;SDS011;60852;52.190;4.422;2022-12-16T10:07:19;3.74;;;3.71;;
68942;SDS011;60852;52.190;4.422;2022-12-16T10:19:03;4.05;;;4.03;;
68942;SDS011;60852;52.190;4.422;2022-12-16T10:22:00;4.22;;;4.21;;
68942;SDS011;60852;52.190;4.422;2022-12-16T10:28:21;4.21;;;4.21;;
68942;SDS011;60852;52.190;4.422;2022-12-16T10:31:24;4.15;;;4.14;;
68942;SDS011;60852;52.190;4.422;2022-12-16T10:34:12;4.94;;;4.91;;
68942;SDS011;60852;52.190;4.422;2022-12-16T10:37:00;4.59;;;4.57;;
68942;SDS011;60852;52.190;4.422;2022-12-16T10:39:49;4.59;;;4.54;;
68942;SDS011;60852;52.190;4.422;2022-12-16T10:42:49;5.17;;;5.10;;
68942;SDS011;60852;52.190;4.422;2022-12-16T10:45:44;5.21;;;5.20;;
68942;SDS011;60852;52.190;4.422;2022-12-16T10:48:34;4.33;;;4.32;;
68942;SDS011;60852;52.190;4.422;2022-12-16T10:51:20;4.28;;;4.27;;
68942;SDS011;60852;52.190;4.422;2022-12-16T11:00:12;4.78;;;4.76;;
68942;SDS011;60852;52.190;4.422;2022-12-16T11:06:02;4.09;;;4.07;;
68942;SDS011;60852;52.190;4.422;2022-12-16T11:08:46;4.23;;;4.22;;
68942;SDS011;60852;52.190;4.422;2022-12-16T11:11:30;4.25;;;4.22;;
68942;SDS011;60852;52.190;4.422;2022-12-16T11:14:16;4.25;;;4.23;;
68942;SDS011;60852;52.190;4.422;2022-12-16T11:17:16;4.46;;;4.43;;
68942;SDS011;60852;52.190;4.422;2022-12-16T11:20:14;4.42;;;4.39;;
68942;SDS011;60852;52.190;4.422;2022-12-16T11:23:06;3.80;;;3.79;;
68942;SDS011;60852;52.190;4.422;2022-12-16T11:26:13;4.40;;;4.40;;
68942;SDS011;60852;52.190;4.422;2022-12-16T11:29:15;4.39;;;4.38;;
68942;SDS011;60852;52.190;4.422;2022-12-16T11:35:11;4.30;;;4.30;;
68942;SDS011;60852;52.190;4.422;2022-12-16T11:38:01;4.11;;;4.10;;
68942;SDS011;60852;52.190;4.422;2022-12-16T11:40:48;3.85;;;3.83;;
68942;SDS011;60852;52.190;4.422;2022-12-16T11:43:33;5.74;;;5.72;;
68942;SDS011;60852;52.190;4.422;2022-12-16T11:46:26;5.05;;;5.02;;
68942;SDS011;60852;52.190;4.422;2022-12-16T11:49:19;5.60;;;5.49;;
68942;SDS011;60852;52.190;4.422;2022-12-16T11:52:18;7.27;;;7.22;;
68942;SDS011;60852;52.190;4.422;2022-12-16T11:55:06;5.69;;;5.62;;
68942;SDS011;60852;52.190;4.422;2022-12-16T12:04:06;4.59;;;4.55;;
68942;SDS011;60852;52.190;4.422;2022-12-16T12:07:12;5.72;;;5.66;;
68942;SDS011;60852;52.190;4.422;2022-12-16T12:13:05;4.07;;;4.04;;
68942;SDS011;60852;52.190;4.422;2022-12-16T12:16:14;3.48;;;3.46;;
68942;SDS011;60852;52.190;4.422;2022-12-16T12:19:07;2.99;;;2.98;;
68942;SDS011;60852;52.190;4.422;2022-12-16T12:22:03;3.44;;;3.44;;
68942;SDS011;60852;52.190;4.422;2022-12-16T12:25:04;3.11;;;3.10;;
68942;SDS011;60852;52.190;4.422;2022-12-16T12:28:06;2.93;;;2.93;;
68942;SDS011;60852;52.190;4.422;2022-12-16T12:31:04;3.76;;;3.75;;
68942;SDS011;60852;52.190;4.422;2022-12-16T12:40:18;3.65;;;3.64;;
68942;SDS011;60852;52.190;4.422;2022-12-16T12:43:27;3.48;;;3.48;;
68942;SDS011;60852;52.190;4.422;2022-12-16T12:46:25;3.14;;;3.14;;
68942;SDS011;60852;52.190;4.422;2022-12-16T12:49:21;3.16;;;3.14;;
68942;SDS011;60852;52.190;4.422;2022-12-16T12:55:09;4.33;;;4.25;;
68942;SDS011;60852;52.190;4.422;2022-12-16T12:58:06;3.13;;;3.11;;
68942;SDS011;60852;52.190;4.422;2022-12-16T13:00:52;3.22;;;3.21;;
68942;SDS011;60852;52.190;4.422;2022-12-16T13:03:49;3.22;;;3.22;;
68942;SDS011;60852;52.190;4.422;2022-12-16T13:07:06;4.51;;;4.50;;
68942;SDS011;60852;52.190;4.422;2022-12-16T13:10:09;4.32;;;4.30;;
68942;SDS011;60852;52.190;4.422;2022-12-16T13:15:57;3.27;;;3.27;;
68942;SDS011;60852;52.190;4.422;2022-12-16T13:18:41;3.47;;;3.45;;
68942;SDS011;60852;52.190;4.422;2022-12-16T13:27:09;3.16;;;3.15;;
68942;SDS011;60852;52.190;4.422;2022-12-16T13:30:04;3.45;;;3.45;;
68942;SDS011;60852;52.190;4.422;2022-12-16T13:33:20;2.84;;;2.82;;
68942;SDS011;60852;52.190;4.422;2022-12-16T13:36:10;3.20;;;3.18;;
68942;SDS011;60852;52.190;4.422;2022-12-16T13:38:57;3.42;;;3.42;;
68942;SDS011;60852;52.190;4.422;2022-12-16T13:41:53;3.40;;;3.39;;
68942;SDS011;60852;52.190;4.422;2022-12-16T13:50:39;4.28;;;4.28;;
68942;SDS011;60852;52.190;4.422;2022-12-16T13:53:27;4.82;;;4.82;;
68942;SDS011;60852;52.190;4.422;2022-12-16T13:56:36;5.21;;;5.20;;
68942;SDS011;60852;52.190;4.422;2022-12-16T13:59:27;4.35;;;4.34;;
68942;SDS011;60852;52.190;4.422;2022-12-16T14:05:13;6.79;;;6.70;;
68942;SDS011;60852;52.190;4.422;2022-12-16T14:08:02;7.96;;;7.90;;
68942;SDS011;60852;52.190;4.422;2022-12-16T14:10:50;6.70;;;6.59;;
68942;SDS011;60852;52.190;4.422;2022-12-16T14:13:43;7.69;;;7.61;;
68942;SDS011;60852;52.190;4.422;2022-12-16T14:22:54;8.09;;;7.95;;
68942;SDS011;60852;52.190;4.422;2022-12-16T14:25:46;8.84;;;8.49;;
68942;SDS011;60852;52.190;4.422;2022-12-16T14:28:31;8.09;;;7.72;;
68942;SDS011;60852;52.190;4.422;2022-12-16T14:31:25;7.37;;;7.12;;
68942;SDS011;60852;52.190;4.422;2022-12-16T14:34:21;6.33;;;6.20;;
68942;SDS011;60852;52.190;4.422;2022-12-16T14:37:22;4.95;;;4.89;;
68942;SDS011;60852;52.190;4.422;2022-12-16T14:46:03;5.82;;;5.79;;
68942;SDS011;60852;52.190;4.422;2022-12-16T14:48:48;5.38;;;5.38;;
68942;SDS011;60852;52.190;4.422;2022-12-16T14:51:37;5.01;;;4.97;;
68942;SDS011;60852;52.190;4.422;2022-12-16T14:54:39;5.65;;;5.62;;
68942;SDS011;60852;52.190;4.422;2022-12-16T14:57:27;7.57;;;7.54;;
68942;SDS011;60852;52.190;4.422;2022-12-16T15:00:20;5.92;;;5.87;;
68942;SDS011;60852;52.190;4.422;2022-12-16T15:05:49;5.43;;;5.40;;
68942;SDS011;60852;52.190;4.422;2022-12-16T15:08:35;7.59;;;7.55;;
68942;SDS011;60852;52.190;4.422;2022-12-16T15:11:31;10.61;;;10.45;;
68942;SDS011;60852;52.190;4.422;2022-12-16T15:14:17;9.12;;;8.95;;
68942;SDS011;60852;52.190;4.422;2022-12-16T15:20:25;9.11;;;8.96;;
68942;SDS011;60852;52.190;4.422;2022-12-16T15:26:17;8.15;;;8.12;;
68942;SDS011;60852;52.190;4.422;2022-12-16T15:29:01;10.05;;;9.87;;
68942;SDS011;60852;52.190;4.422;2022-12-16T15:31:45;9.71;;;9.60;;
68942;SDS011;60852;52.190;4.422;2022-12-16T15:34:31;9.64;;;9.48;;
68942;SDS011;60852;52.190;4.422;2022-12-16T15:37:39;9.44;;;9.39;;
68942;SDS011;60852;52.190;4.422;2022-12-16T15:40:26;10.24;;;10.11;;
68942;SDS011;60852;52.190;4.422;2022-12-16T15:43:19;11.21;;;11.07;;
68942;SDS011;60852;52.190;4.422;2022-12-16T15:46:16;11.04;;;11.04;;
68942;SDS011;60852;52.190;4.422;2022-12-16T15:49:00;12.52;;;12.52;;
68942;SDS011;60852;52.190;4.422;2022-12-16T15:51:46;13.41;;;13.33;;
68942;SDS011;60852;52.190;4.422;2022-12-16T15:54:32;11.90;;;11.83;;
68942;SDS011;60852;52.190;4.422;2022-12-16T15:57:23;12.72;;;12.60;;
68942;SDS011;60852;52.190;4.422;2022-12-16T16:06:21;13.77;;;13.62;;
68942;SDS011;60852;52.190;4.422;2022-12-16T16:09:13;14.79;;;14.66;;
68942;SDS011;60852;52.190;4.422;2022-12-16T16:12:10;15.06;;;14.90;;
68942;SDS011;60852;52.190;4.422;2022-12-16T16:14:55;15.99;;;15.86;;
68942;SDS011;60852;52.190;4.422;2022-12-16T16:17:40;17.69;;;17.34;;
68942;SDS011;60852;52.190;4.422;2022-12-16T16:20:24;19.58;;;19.23;;
68942;SDS011;60852;52.190;4.422;2022-12-16T16:23:08;20.15;;;19.91;;
68942;SDS011;60852;52.190;4.422;2022-12-16T16:25:53;20.12;;;19.95;;
68942;SDS011;60852;52.190;4.422;2022-12-16T16:28:37;20.90;;;20.64;;
68942;SDS011;60852;52.190;4.422;2022-12-16T16:31:22;22.35;;;22.11;;
68942;SDS011;60852;52.190;4.422;2022-12-16T16:34:06;24.32;;;24.08;;
68942;SDS011;60852;52.190;4.422;2022-12-16T16:36:53;24.88;;;24.59;;
68942;SDS011;60852;52.190;4.422;2022-12-16T16:39:40;25.84;;;25.57;;
68942;SDS011;60852;52.190;4.422;2022-12-16T16:42:24;27.99;;;27.71;;
68942;SDS011;60852;52.190;4.422;2022-12-16T16:45:08;29.07;;;28.67;;
68942;SDS011;60852;52.190;4.422;2022-12-16T16:48:08;29.73;;;29.27;;
68942;SDS011;60852;52.190;4.422;2022-12-16T16:50:56;26.68;;;26.50;;
68942;SDS011;60852;52.190;4.422;2022-12-16T16:53:41;29.44;;;28.90;;
68942;SDS011;60852;52.190;4.422;2022-12-16T16:56:25;24.82;;;24.34;;
68942;SDS011;60852;52.190;4.422;2022-12-16T16:59:11;22.79;;;22.60;;
68942;SDS011;60852;52.190;4.422;2022-12-16T17:01:55;20.33;;;20.07;;
68942;SDS011;60852;52.190;4.422;2022-12-16T17:04:40;20.48;;;20.26;;
68942;SDS011;60852;52.190;4.422;2022-12-16T17:07:24;19.28;;;19.24;;
68942;SDS011;60852;52.190;4.422;2022-12-16T17:10:08;18.21;;;18.08;;
68942;SDS011;60852;52.190;4.422;2022-12-16T17:12:53;19.42;;;19.18;;
68942;SDS011;60852;52.190;4.422;2022-12-16T17:15:37;18.46;;;18.30;;
68942;SDS011;60852;52.190;4.422;2022-12-16T17:31:25;19.09;;;18.88;;
68942;SDS011;60852;52.190;4.422;2022-12-16T17:34:09;19.98;;;19.80;;
68942;SDS011;60852;52.190;4.422;2022-12-16T17:37:07;20.02;;;19.80;;
68942;SDS011;60852;52.190;4.422;2022-12-16T17:39:51;20.21;;;19.90;;
68942;SDS011;60852;52.190;4.422;2022-12-16T17:42:35;21.77;;;21.37;;
68942;SDS011;60852;52.190;4.422;2022-12-16T17:45:19;23.41;;;23.23;;
68942;SDS011;60852;52.190;4.422;2022-12-16T17:48:03;26.78;;;26.40;;
68942;SDS011;60852;52.190;4.422;2022-12-16T17:50:47;27.46;;;27.16;;
68942;SDS011;60852;52.190;4.422;2022-12-16T17:53:31;34.51;;;34.01;;
68942;SDS011;60852;52.190;4.422;2022-12-16T17:56:15;39.82;;;39.13;;
68942;SDS011;60852;52.190;4.422;2022-12-16T17:58:59;39.66;;;38.55;;
68942;SDS011;60852;52.190;4.422;2022-12-16T18:01:43;39.99;;;39.37;;
68942;SDS011;60852;52.190;4.422;2022-12-16T18:04:27;36.98;;;36.34;;
68942;SDS011;60852;52.190;4.422;2022-12-16T18:07:11;36.46;;;35.92;;
68942;SDS011;60852;52.190;4.422;2022-12-16T18:09:55;32.10;;;31.47;;
68942;SDS011;60852;52.190;4.422;2022-12-16T18:12:39;26.82;;;26.64;;
68942;SDS011;60852;52.190;4.422;2022-12-16T18:15:24;22.33;;;22.05;;
68942;SDS011;60852;52.190;4.422;2022-12-16T18:18:08;21.06;;;20.88;;
68942;SDS011;60852;52.190;4.422;2022-12-16T18:20:52;22.74;;;22.55;;
68942;SDS011;60852;52.190;4.422;2022-12-16T18:23:36;21.89;;;21.63;;